sensor_id;sensor_type;location;lat;lon;timestamp;P1;durP1;ratioP1;P2;durP2;ratioP2
30068;SDS011;16894;49.456;10.644;2022-09-27T00:00:22;18.08;;;16.88;;
30068;SDS011;16894;49.456;10.644;2022-09-27T00:02:48;18.47;;;17.03;;
30068;SDS011;16894;49.456;10.644;2022-09-27T00:05:14;15.13;;;13.83;;
30068;SDS011;16894;49.456;10.644;2022-09-27T00:07:40;14.80;;;13.40;;
30068;SDS011;16894;49.456;10.644;2022-09-27T00:10:06;14.70;;;13.50;;
30068;SDS011;16894;49.456;10.644;2022-09-27T00:12:32;14.15;;;12.85;;
30068;SDS011;16894;49.456;10.644;2022-09-27T00:14:59;13.88;;;12.68;;
30068;SDS011;16894;49.456;10.644;2022-09-27T00:17:26;15.60;;;14.15;;
30068;SDS011;16894;49.456;10.644;2022-09-27T00:19:52;12.05;;;10.73;;
30068;SDS011;16894;49.456;10.644;2022-09-27T00:22:20;10.80;;;9.80;;
30068;SDS011;16894;49.456;10.644;2022-09-27T00:24:46;10.57;;;7.80;;
30068;SDS011;16894;49.456;10.644;2022-09-27T00:27:12;15.93;;;11.17;;
30068;SDS011;16894;49.456;10.644;2022-09-27T00:29:38;13.53;;;7.20;;
30068;SDS011;16894;49.456;10.644;2022-09-27T00:32:03;7.93;;;6.43;;
30068;SDS011;16894;49.456;10.644;2022-09-27T00:34:29;6.83;;;4.97;;
30068;SDS011;16894;49.456;10.644;2022-09-27T00:36:54;6.73;;;5.50;;
30068;SDS011;16894;49.456;10.644;2022-09-27T00:39:20;5.70;;;5.10;;
30068;SDS011;16894;49.456;10.644;2022-09-27T00:41:46;6.00;;;5.40;;
30068;SDS011;16894;49.456;10.644;2022-09-27T00:49:27;5.47;;;4.93;;
30068;SDS011;16894;49.456;10.644;2022-09-27T00:51:58;4.40;;;3.97;;
30068;SDS011;16894;49.456;10.644;2022-09-27T00:54:31;5.35;;;4.07;;
30068;SDS011;16894;49.456;10.644;2022-09-27T00:57:00;4.53;;;3.85;;
30068;SDS011;16894;49.456;10.644;2022-09-27T01:02:28;6.63;;;4.90;;
30068;SDS011;16894;49.456;10.644;2022-09-27T01:04:54;4.47;;;3.92;;
30068;SDS011;16894;49.456;10.644;2022-09-27T01:09:47;3.53;;;3.22;;
30068;SDS011;16894;49.456;10.644;2022-09-27T01:13:16;5.60;;;3.53;;
30068;SDS011;16894;49.456;10.644;2022-09-27T01:18:04;5.82;;;4.72;;
30068;SDS011;16894;49.456;10.644;2022-09-27T01:37:32;17.73;;;16.23;;
30068;SDS011;16894;49.456;10.644;2022-09-27T01:40:19;13.52;;;12.63;;
30068;SDS011;16894;49.456;10.644;2022-09-27T01:48:36;12.90;;;11.75;;
30068;SDS011;16894;49.456;10.644;2022-09-27T01:51:08;11.98;;;11.00;;
30068;SDS011;16894;49.456;10.644;2022-09-27T01:53:39;11.95;;;10.73;;
30068;SDS011;16894;49.456;10.644;2022-09-27T01:56:31;11.93;;;11.00;;
30068;SDS011;16894;49.456;10.644;2022-09-27T02:01:40;13.85;;;12.68;;
30068;SDS011;16894;49.456;10.644;2022-09-27T02:04:09;11.40;;;10.50;;
30068;SDS011;16894;49.456;10.644;2022-09-27T02:06:42;14.63;;;13.43;;
30068;SDS011;16894;49.456;10.644;2022-09-27T02:09:33;14.23;;;12.80;;
30068;SDS011;16894;49.456;10.644;2022-09-27T02:12:06;12.90;;;11.75;;
30068;SDS011;16894;49.456;10.644;2022-09-27T02:14:37;15.43;;;14.43;;
30068;SDS011;16894;49.456;10.644;2022-09-27T02:17:20;16.40;;;15.18;;
30068;SDS011;16894;49.456;10.644;2022-09-27T02:20:16;14.52;;;13.27;;
30068;SDS011;16894;49.456;10.644;2022-09-27T02:23:08;15.02;;;14.02;;
30068;SDS011;16894;49.456;10.644;2022-09-27T02:26:01;13.20;;;12.40;;
30068;SDS011;16894;49.456;10.644;2022-09-27T02:28:34;16.88;;;15.50;;
30068;SDS011;16894;49.456;10.644;2022-09-27T02:31:02;13.35;;;12.15;;
30068;SDS011;16894;49.456;10.644;2022-09-27T02:33:42;13.40;;;12.57;;
30068;SDS011;16894;49.456;10.644;2022-09-27T02:36:11;13.80;;;13.00;;
30068;SDS011;16894;49.456;10.644;2022-09-27T02:38:37;13.30;;;12.10;;
30068;SDS011;16894;49.456;10.644;2022-09-27T02:41:03;12.05;;;11.35;;
30068;SDS011;16894;49.456;10.644;2022-09-27T02:43:36;12.73;;;11.90;;
30068;SDS011;16894;49.456;10.644;2022-09-27T02:46:08;12.83;;;11.93;;
30068;SDS011;16894;49.456;10.644;2022-09-27T02:54:33;12.38;;;11.52;;
30068;SDS011;16894;49.456;10.644;2022-09-27T02:59:59;12.38;;;11.52;;
30068;SDS011;16894;49.456;10.644;2022-09-27T03:05:02;12.70;;;11.90;;
30068;SDS011;16894;49.456;10.644;2022-09-27T03:07:32;13.82;;;12.82;;
30068;SDS011;16894;49.456;10.644;2022-09-27T03:09:58;15.25;;;14.25;;
30068;SDS011;16894;49.456;10.644;2022-09-27T03:12:24;13.77;;;12.83;;
30068;SDS011;16894;49.456;10.644;2022-09-27T03:14:51;14.70;;;13.80;;
30068;SDS011;16894;49.456;10.644;2022-09-27T03:17:19;13.93;;;13.10;;
30068;SDS011;16894;49.456;10.644;2022-09-27T03:19:44;16.23;;;14.70;;
30068;SDS011;16894;49.456;10.644;2022-09-27T03:22:10;11.83;;;11.03;;
30068;SDS011;16894;49.456;10.644;2022-09-27T03:24:35;15.87;;;14.77;;
30068;SDS011;16894;49.456;10.644;2022-09-27T03:27:01;14.63;;;13.67;;
30068;SDS011;16894;49.456;10.644;2022-09-27T03:29:27;14.20;;;13.32;;
30068;SDS011;16894;49.456;10.644;2022-09-27T03:31:53;13.30;;;12.40;;
30068;SDS011;16894;49.456;10.644;2022-09-27T03:34:18;16.60;;;15.00;;
30068;SDS011;16894;49.456;10.644;2022-09-27T03:36:44;12.10;;;11.03;;
30068;SDS011;16894;49.456;10.644;2022-09-27T03:39:10;11.20;;;10.33;;
30068;SDS011;16894;49.456;10.644;2022-09-27T03:41:35;9.07;;;8.37;;
30068;SDS011;16894;49.456;10.644;2022-09-27T03:44:02;8.35;;;7.85;;
30068;SDS011;16894;49.456;10.644;2022-09-27T03:46:27;7.55;;;6.85;;
30068;SDS011;16894;49.456;10.644;2022-09-27T03:48:53;6.27;;;5.77;;
30068;SDS011;16894;49.456;10.644;2022-09-27T03:51:19;8.60;;;7.57;;
30068;SDS011;16894;49.456;10.644;2022-09-27T03:53:44;7.10;;;6.40;;
30068;SDS011;16894;49.456;10.644;2022-09-27T03:56:10;7.22;;;6.78;;
30068;SDS011;16894;49.456;10.644;2022-09-27T03:58:36;6.23;;;5.73;;
30068;SDS011;16894;49.456;10.644;2022-09-27T04:01:02;7.87;;;7.17;;
30068;SDS011;16894;49.456;10.644;2022-09-27T04:03:27;6.65;;;5.40;;
30068;SDS011;16894;49.456;10.644;2022-09-27T04:05:53;5.77;;;5.37;;
30068;SDS011;16894;49.456;10.644;2022-09-27T04:08:19;6.70;;;6.20;;
30068;SDS011;16894;49.456;10.644;2022-09-27T04:10:46;11.05;;;10.02;;
30068;SDS011;16894;49.456;10.644;2022-09-27T04:13:12;14.32;;;12.20;;
30068;SDS011;16894;49.456;10.644;2022-09-27T04:15:38;20.15;;;18.50;;
30068;SDS011;16894;49.456;10.644;2022-09-27T04:18:03;21.53;;;20.27;;
30068;SDS011;16894;49.456;10.644;2022-09-27T04:20:30;19.13;;;17.45;;
30068;SDS011;16894;49.456;10.644;2022-09-27T04:22:56;18.33;;;16.90;;
30068;SDS011;16894;49.456;10.644;2022-09-27T04:25:21;21.90;;;20.40;;
30068;SDS011;16894;49.456;10.644;2022-09-27T04:27:47;22.83;;;20.73;;
30068;SDS011;16894;49.456;10.644;2022-09-27T04:30:16;24.13;;;21.67;;
30068;SDS011;16894;49.456;10.644;2022-09-27T04:32:42;19.23;;;17.55;;
30068;SDS011;16894;49.456;10.644;2022-09-27T04:37:53;18.88;;;16.08;;
30068;SDS011;16894;49.456;10.644;2022-09-27T04:40:18;20.67;;;12.33;;
30068;SDS011;16894;49.456;10.644;2022-09-27T04:42:46;14.55;;;8.93;;
30068;SDS011;16894;49.456;10.644;2022-09-27T04:45:12;8.63;;;7.25;;
30068;SDS011;16894;49.456;10.644;2022-09-27T04:47:42;10.90;;;7.63;;
30068;SDS011;16894;49.456;10.644;2022-09-27T04:50:08;11.68;;;7.50;;
30068;SDS011;16894;49.456;10.644;2022-09-27T04:52:34;8.27;;;7.38;;
30068;SDS011;16894;49.456;10.644;2022-09-27T04:54:59;11.20;;;6.10;;
30068;SDS011;16894;49.456;10.644;2022-09-27T04:57:25;10.87;;;7.37;;
30068;SDS011;16894;49.456;10.644;2022-09-27T04:59:50;7.20;;;6.50;;
30068;SDS011;16894;49.456;10.644;2022-09-27T05:02:16;14.57;;;5.57;;
30068;SDS011;16894;49.456;10.644;2022-09-27T05:04:42;8.55;;;5.25;;
30068;SDS011;16894;49.456;10.644;2022-09-27T05:07:08;9.37;;;5.50;;
30068;SDS011;16894;49.456;10.644;2022-09-27T05:09:33;8.63;;;5.37;;
30068;SDS011;16894;49.456;10.644;2022-09-27T05:11:59;5.07;;;4.20;;
30068;SDS011;16894;49.456;10.644;2022-09-27T05:14:25;12.15;;;5.07;;
30068;SDS011;16894;49.456;10.644;2022-09-27T05:16:51;4.77;;;4.23;;
30068;SDS011;16894;49.456;10.644;2022-09-27T05:19:17;8.57;;;4.43;;
30068;SDS011;16894;49.456;10.644;2022-09-27T05:21:43;14.67;;;4.70;;
30068;SDS011;16894;49.456;10.644;2022-09-27T05:24:09;13.77;;;5.57;;
30068;SDS011;16894;49.456;10.644;2022-09-27T05:26:34;9.50;;;5.00;;
30068;SDS011;16894;49.456;10.644;2022-09-27T05:29:01;6.43;;;5.68;;
30068;SDS011;16894;49.456;10.644;2022-09-27T05:31:27;8.43;;;5.78;;
30068;SDS011;16894;49.456;10.644;2022-09-27T05:33:53;6.40;;;5.47;;
30068;SDS011;16894;49.456;10.644;2022-09-27T05:36:19;6.95;;;6.43;;
30068;SDS011;16894;49.456;10.644;2022-09-27T05:38:45;6.60;;;5.18;;
30068;SDS011;16894;49.456;10.644;2022-09-27T05:41:11;9.05;;;6.05;;
30068;SDS011;16894;49.456;10.644;2022-09-27T05:43:37;5.47;;;5.07;;
30068;SDS011;16894;49.456;10.644;2022-09-27T05:46:02;13.93;;;4.97;;
30068;SDS011;16894;49.456;10.644;2022-09-27T05:50:55;10.52;;;5.63;;
30068;SDS011;16894;49.456;10.644;2022-09-27T05:53:20;7.47;;;5.00;;
30068;SDS011;16894;49.456;10.644;2022-09-27T05:55:46;10.20;;;5.80;;
30068;SDS011;16894;49.456;10.644;2022-09-27T05:58:13;6.65;;;6.15;;
30068;SDS011;16894;49.456;10.644;2022-09-27T06:00:40;5.78;;;5.28;;
30068;SDS011;16894;49.456;10.644;2022-09-27T06:03:07;5.43;;;5.03;;
30068;SDS011;16894;49.456;10.644;2022-09-27T06:05:35;7.65;;;5.53;;
30068;SDS011;16894;49.456;10.644;2022-09-27T06:08:04;5.10;;;4.55;;
30068;SDS011;16894;49.456;10.644;2022-09-27T06:10:31;5.93;;;5.53;;
30068;SDS011;16894;49.456;10.644;2022-09-27T06:13:01;5.88;;;4.95;;
30068;SDS011;16894;49.456;10.644;2022-09-27T06:15:30;5.25;;;4.85;;
30068;SDS011;16894;49.456;10.644;2022-09-27T06:17:56;5.28;;;4.78;;
30068;SDS011;16894;49.456;10.644;2022-09-27T06:20:26;13.65;;;12.80;;
30068;SDS011;16894;49.456;10.644;2022-09-27T06:22:51;6.30;;;5.73;;
30068;SDS011;16894;49.456;10.644;2022-09-27T06:25:18;7.25;;;6.72;;
30068;SDS011;16894;49.456;10.644;2022-09-27T06:27:44;7.05;;;6.55;;
30068;SDS011;16894;49.456;10.644;2022-09-27T06:30:10;7.30;;;5.60;;
30068;SDS011;16894;49.456;10.644;2022-09-27T06:35:02;7.68;;;6.18;;
30068;SDS011;16894;49.456;10.644;2022-09-27T06:37:29;9.85;;;9.20;;
30068;SDS011;16894;49.456;10.644;2022-09-27T06:39:55;10.33;;;9.73;;
30068;SDS011;16894;49.456;10.644;2022-09-27T06:42:21;18.42;;;17.33;;
30068;SDS011;16894;49.456;10.644;2022-09-27T06:44:47;26.47;;;24.80;;
30068;SDS011;16894;49.456;10.644;2022-09-27T06:47:13;27.30;;;25.70;;
30068;SDS011;16894;49.456;10.644;2022-09-27T06:49:40;29.50;;;27.67;;
30068;SDS011;16894;49.456;10.644;2022-09-27T06:52:06;30.67;;;28.87;;
30068;SDS011;16894;49.456;10.644;2022-09-27T06:54:31;34.83;;;32.57;;
30068;SDS011;16894;49.456;10.644;2022-09-27T06:56:57;32.83;;;30.97;;
30068;SDS011;16894;49.456;10.644;2022-09-27T06:59:22;33.87;;;31.67;;
30068;SDS011;16894;49.456;10.644;2022-09-27T07:02:06;31.90;;;30.00;;
30068;SDS011;16894;49.456;10.644;2022-09-27T07:04:32;29.20;;;27.30;;
30068;SDS011;16894;49.456;10.644;2022-09-27T07:06:58;30.47;;;28.57;;
30068;SDS011;16894;49.456;10.644;2022-09-27T07:09:23;47.13;;;44.10;;
30068;SDS011;16894;49.456;10.644;2022-09-27T07:11:49;27.53;;;25.40;;
30068;SDS011;16894;49.456;10.644;2022-09-27T07:14:14;25.77;;;23.77;;
30068;SDS011;16894;49.456;10.644;2022-09-27T07:19:07;22.58;;;21.27;;
30068;SDS011;16894;49.456;10.644;2022-09-27T07:21:35;27.67;;;25.92;;
30068;SDS011;16894;49.456;10.644;2022-09-27T07:24:01;32.28;;;30.25;;
30068;SDS011;16894;49.456;10.644;2022-09-27T07:26:28;31.10;;;28.88;;
30068;SDS011;16894;49.456;10.644;2022-09-27T07:28:53;25.03;;;23.23;;
30068;SDS011;16894;49.456;10.644;2022-09-27T07:31:20;35.28;;;32.90;;
30068;SDS011;16894;49.456;10.644;2022-09-27T07:33:46;19.65;;;18.42;;
30068;SDS011;16894;49.456;10.644;2022-09-27T07:36:12;20.90;;;19.60;;
30068;SDS011;16894;49.456;10.644;2022-09-27T07:38:38;15.85;;;14.88;;
30068;SDS011;16894;49.456;10.644;2022-09-27T07:41:04;14.20;;;13.40;;
30068;SDS011;16894;49.456;10.644;2022-09-27T07:43:31;11.90;;;11.00;;
30068;SDS011;16894;49.456;10.644;2022-09-27T07:45:57;10.35;;;9.75;;
30068;SDS011;16894;49.456;10.644;2022-09-27T07:48:22;10.37;;;9.77;;
30068;SDS011;16894;49.456;10.644;2022-09-27T07:50:48;10.53;;;9.83;;
30068;SDS011;16894;49.456;10.644;2022-09-27T07:53:13;7.03;;;6.63;;
30068;SDS011;16894;49.456;10.644;2022-09-27T07:55:40;16.05;;;15.05;;
30068;SDS011;16894;49.456;10.644;2022-09-27T07:58:07;27.42;;;25.77;;
30068;SDS011;16894;49.456;10.644;2022-09-27T08:00:35;20.27;;;19.05;;
30068;SDS011;16894;49.456;10.644;2022-09-27T08:03:15;21.13;;;19.65;;
30068;SDS011;16894;49.456;10.644;2022-09-27T08:05:45;20.73;;;19.38;;
30068;SDS011;16894;49.456;10.644;2022-09-27T08:08:12;22.55;;;21.05;;
30068;SDS011;16894;49.456;10.644;2022-09-27T08:10:38;14.57;;;13.70;;
30068;SDS011;16894;49.456;10.644;2022-09-27T08:13:08;13.95;;;13.05;;
30068;SDS011;16894;49.456;10.644;2022-09-27T08:15:34;23.15;;;21.77;;
30068;SDS011;16894;49.456;10.644;2022-09-27T08:18:03;21.45;;;20.15;;
30068;SDS011;16894;49.456;10.644;2022-09-27T08:22:55;19.10;;;17.95;;
30068;SDS011;16894;49.456;10.644;2022-09-27T08:25:21;17.30;;;16.23;;
30068;SDS011;16894;49.456;10.644;2022-09-27T08:27:58;9.48;;;8.85;;
30068;SDS011;16894;49.456;10.644;2022-09-27T08:30:26;6.63;;;6.22;;
30068;SDS011;16894;49.456;10.644;2022-09-27T08:32:53;17.95;;;16.50;;
30068;SDS011;16894;49.456;10.644;2022-09-27T08:35:20;20.90;;;19.42;;
30068;SDS011;16894;49.456;10.644;2022-09-27T08:37:53;49.28;;;45.55;;
30068;SDS011;16894;49.456;10.644;2022-09-27T08:40:19;20.98;;;19.60;;
30068;SDS011;16894;49.456;10.644;2022-09-27T08:42:56;12.40;;;11.30;;
30068;SDS011;16894;49.456;10.644;2022-09-27T08:45:51;7.28;;;6.85;;
30068;SDS011;16894;49.456;10.644;2022-09-27T08:48:28;9.63;;;8.80;;
30068;SDS011;16894;49.456;10.644;2022-09-27T08:50:55;10.88;;;10.15;;
30068;SDS011;16894;49.456;10.644;2022-09-27T08:53:23;16.23;;;14.93;;
30068;SDS011;16894;49.456;10.644;2022-09-27T08:55:55;9.95;;;9.40;;
30068;SDS011;16894;49.456;10.644;2022-09-27T08:58:32;14.48;;;13.60;;
30068;SDS011;16894;49.456;10.644;2022-09-27T09:01:01;16.42;;;15.43;;
30068;SDS011;16894;49.456;10.644;2022-09-27T09:03:30;15.07;;;14.18;;
30068;SDS011;16894;49.456;10.644;2022-09-27T09:08:48;21.05;;;19.50;;
30068;SDS011;16894;49.456;10.644;2022-09-27T09:14:30;21.33;;;19.67;;
30068;SDS011;16894;49.456;10.644;2022-09-27T09:20:18;12.25;;;11.52;;
30068;SDS011;16894;49.456;10.644;2022-09-27T09:33:57;13.18;;;12.35;;
30068;SDS011;16894;49.456;10.644;2022-09-27T09:36:33;15.85;;;14.68;;
30068;SDS011;16894;49.456;10.644;2022-09-27T09:39:13;10.77;;;10.10;;
30068;SDS011;16894;49.456;10.644;2022-09-27T09:47:31;5.78;;;4.97;;
30068;SDS011;16894;49.456;10.644;2022-09-27T09:52:56;5.57;;;5.28;;
30068;SDS011;16894;49.456;10.644;2022-09-27T09:55:30;6.75;;;6.32;;
30068;SDS011;16894;49.456;10.644;2022-09-27T10:00:37;15.88;;;14.63;;
30068;SDS011;16894;49.456;10.644;2022-09-27T10:03:04;8.63;;;8.13;;
30068;SDS011;16894;49.456;10.644;2022-09-27T10:05:30;6.40;;;5.97;;
30068;SDS011;16894;49.456;10.644;2022-09-27T10:07:57;22.38;;;20.88;;
30068;SDS011;16894;49.456;10.644;2022-09-27T10:10:24;22.08;;;20.50;;
30068;SDS011;16894;49.456;10.644;2022-09-27T10:12:50;9.63;;;9.02;;
30068;SDS011;16894;49.456;10.644;2022-09-27T10:15:20;6.85;;;6.35;;
30068;SDS011;16894;49.456;10.644;2022-09-27T10:17:53;5.25;;;4.85;;
30068;SDS011;16894;49.456;10.644;2022-09-27T10:22:48;6.10;;;5.57;;
30068;SDS011;16894;49.456;10.644;2022-09-27T10:25:19;6.38;;;5.85;;
30068;SDS011;16894;49.456;10.644;2022-09-27T10:27:46;6.45;;;6.10;;
30068;SDS011;16894;49.456;10.644;2022-09-27T10:33:00;5.30;;;4.90;;
30068;SDS011;16894;49.456;10.644;2022-09-27T10:35:32;19.52;;;17.88;;
30068;SDS011;16894;49.456;10.644;2022-09-27T10:43:49;8.63;;;7.85;;
30068;SDS011;16894;49.456;10.644;2022-09-27T10:46:21;3.13;;;2.93;;
30068;SDS011;16894;49.456;10.644;2022-09-27T10:51:57;3.78;;;3.58;;
30068;SDS011;16894;49.456;10.644;2022-09-27T10:54:26;5.35;;;4.40;;
30068;SDS011;16894;49.456;10.644;2022-09-27T10:56:57;3.65;;;3.30;;
30068;SDS011;16894;49.456;10.644;2022-09-27T10:59:28;4.07;;;3.72;;
30068;SDS011;16894;49.456;10.644;2022-09-27T11:01:57;3.75;;;3.55;;
30068;SDS011;16894;49.456;10.644;2022-09-27T11:04:27;4.10;;;3.85;;
30068;SDS011;16894;49.456;10.644;2022-09-27T11:09:47;7.55;;;7.10;;
30068;SDS011;16894;49.456;10.644;2022-09-27T11:12:18;7.45;;;6.95;;
30068;SDS011;16894;49.456;10.644;2022-09-27T11:15:29;4.22;;;3.92;;
30068;SDS011;16894;49.456;10.644;2022-09-27T11:17:58;5.10;;;2.60;;
30068;SDS011;16894;49.456;10.644;2022-09-27T11:20:43;6.68;;;6.05;;
30068;SDS011;16894;49.456;10.644;2022-09-27T11:26:50;6.55;;;6.15;;
30068;SDS011;16894;49.456;10.644;2022-09-27T11:32:01;5.68;;;5.15;;
30068;SDS011;16894;49.456;10.644;2022-09-27T11:34:39;5.43;;;5.03;;
30068;SDS011;16894;49.456;10.644;2022-09-27T11:57:22;5.10;;;4.70;;
30068;SDS011;16894;49.456;10.644;2022-09-27T12:11:02;5.90;;;5.35;;
30068;SDS011;16894;49.456;10.644;2022-09-27T12:13:40;6.03;;;4.05;;
30068;SDS011;16894;49.456;10.644;2022-09-27T12:16:11;3.85;;;3.55;;
30068;SDS011;16894;49.456;10.644;2022-09-27T12:18:40;3.67;;;3.38;;
30068;SDS011;16894;49.456;10.644;2022-09-27T12:23:40;8.77;;;6.32;;
30068;SDS011;16894;49.456;10.644;2022-09-27T12:28:54;12.32;;;8.85;;
30068;SDS011;16894;49.456;10.644;2022-09-27T12:31:30;7.53;;;7.13;;
30068;SDS011;16894;49.456;10.644;2022-09-27T12:37:12;3.95;;;3.67;;
30068;SDS011;16894;49.456;10.644;2022-09-27T12:39:48;3.35;;;3.08;;
30068;SDS011;16894;49.456;10.644;2022-09-27T12:45:00;8.13;;;6.97;;
30068;SDS011;16894;49.456;10.644;2022-09-27T12:47:48;6.57;;;6.03;;
30068;SDS011;16894;49.456;10.644;2022-09-27T12:52:54;4.97;;;4.65;;
30068;SDS011;16894;49.456;10.644;2022-09-27T12:55:46;7.40;;;5.97;;
30068;SDS011;16894;49.456;10.644;2022-09-27T13:14:04;11.50;;;10.70;;
30068;SDS011;16894;49.456;10.644;2022-09-27T13:16:41;12.80;;;12.10;;
30068;SDS011;16894;49.456;10.644;2022-09-27T13:19:19;13.25;;;12.35;;
30068;SDS011;16894;49.456;10.644;2022-09-27T13:22:00;13.88;;;13.00;;
30068;SDS011;16894;49.456;10.644;2022-09-27T13:24:30;12.82;;;11.88;;
30068;SDS011;16894;49.456;10.644;2022-09-27T13:26:56;10.48;;;9.75;;
30068;SDS011;16894;49.456;10.644;2022-09-27T13:29:26;12.10;;;11.05;;
30068;SDS011;16894;49.456;10.644;2022-09-27T13:37:21;13.32;;;9.82;;
30068;SDS011;16894;49.456;10.644;2022-09-27T13:42:48;11.90;;;10.88;;
30068;SDS011;16894;49.456;10.644;2022-09-27T13:45:29;12.13;;;11.40;;
30068;SDS011;16894;49.456;10.644;2022-09-27T13:48:10;9.80;;;9.10;;
30068;SDS011;16894;49.456;10.644;2022-09-27T13:51:11;12.40;;;11.43;;
30068;SDS011;16894;49.456;10.644;2022-09-27T13:53:54;11.02;;;10.27;;
30068;SDS011;16894;49.456;10.644;2022-09-27T13:59:12;11.27;;;9.88;;
30068;SDS011;16894;49.456;10.644;2022-09-27T14:02:24;15.82;;;10.70;;
30068;SDS011;16894;49.456;10.644;2022-09-27T14:04:53;12.27;;;11.43;;
30068;SDS011;16894;49.456;10.644;2022-09-27T14:07:23;10.80;;;9.77;;
30068;SDS011;16894;49.456;10.644;2022-09-27T14:10:03;10.88;;;10.00;;
30068;SDS011;16894;49.456;10.644;2022-09-27T14:12:33;9.27;;;8.52;;
30068;SDS011;16894;49.456;10.644;2022-09-27T14:15:01;12.32;;;9.60;;
30068;SDS011;16894;49.456;10.644;2022-09-27T14:17:28;10.43;;;9.50;;
30068;SDS011;16894;49.456;10.644;2022-09-27T14:19:54;10.00;;;9.18;;
30068;SDS011;16894;49.456;10.644;2022-09-27T14:22:21;10.17;;;9.57;;
30068;SDS011;16894;49.456;10.644;2022-09-27T14:24:48;11.13;;;10.20;;
30068;SDS011;16894;49.456;10.644;2022-09-27T14:27:16;12.88;;;11.05;;
30068;SDS011;16894;49.456;10.644;2022-09-27T14:29:44;10.23;;;9.23;;
30068;SDS011;16894;49.456;10.644;2022-09-27T14:32:17;12.00;;;11.13;;
30068;SDS011;16894;49.456;10.644;2022-09-27T14:34:45;11.40;;;10.60;;
30068;SDS011;16894;49.456;10.644;2022-09-27T14:37:29;11.75;;;10.90;;
30068;SDS011;16894;49.456;10.644;2022-09-27T14:39:56;9.80;;;9.18;;
30068;SDS011;16894;49.456;10.644;2022-09-27T14:42:30;10.15;;;8.73;;
30068;SDS011;16894;49.456;10.644;2022-09-27T14:45:02;9.50;;;7.95;;
30068;SDS011;16894;49.456;10.644;2022-09-27T14:47:49;7.65;;;6.30;;
30068;SDS011;16894;49.456;10.644;2022-09-27T14:50:23;6.15;;;5.75;;
30068;SDS011;16894;49.456;10.644;2022-09-27T14:52:52;5.13;;;4.70;;
30068;SDS011;16894;49.456;10.644;2022-09-27T14:55:20;4.38;;;3.97;;
30068;SDS011;16894;49.456;10.644;2022-09-27T14:57:51;4.82;;;4.40;;
30068;SDS011;16894;49.456;10.644;2022-09-27T15:02:50;5.18;;;4.75;;
30068;SDS011;16894;49.456;10.644;2022-09-27T15:05:25;6.68;;;5.60;;
30068;SDS011;16894;49.456;10.644;2022-09-27T15:07:52;6.60;;;6.00;;
30068;SDS011;16894;49.456;10.644;2022-09-27T15:10:22;5.30;;;4.80;;
30068;SDS011;16894;49.456;10.644;2022-09-27T15:12:52;4.25;;;4.00;;
30068;SDS011;16894;49.456;10.644;2022-09-27T15:15:23;5.30;;;4.80;;
30068;SDS011;16894;49.456;10.644;2022-09-27T15:17:51;5.00;;;4.47;;
30068;SDS011;16894;49.456;10.644;2022-09-27T15:22:58;7.20;;;4.90;;
30068;SDS011;16894;49.456;10.644;2022-09-27T15:28:02;3.97;;;3.67;;
30068;SDS011;16894;49.456;10.644;2022-09-27T15:30:36;4.10;;;3.53;;
30068;SDS011;16894;49.456;10.644;2022-09-27T15:33:03;4.40;;;4.00;;
30068;SDS011;16894;49.456;10.644;2022-09-27T15:35:32;5.57;;;4.75;;
30068;SDS011;16894;49.456;10.644;2022-09-27T15:38:09;6.40;;;4.22;;
30068;SDS011;16894;49.456;10.644;2022-09-27T15:43:19;3.47;;;3.23;;
30068;SDS011;16894;49.456;10.644;2022-09-27T15:45:49;5.65;;;4.00;;
30068;SDS011;16894;49.456;10.644;2022-09-27T15:48:17;5.60;;;5.10;;
30068;SDS011;16894;49.456;10.644;2022-09-27T15:50:45;6.07;;;5.57;;
30068;SDS011;16894;49.456;10.644;2022-09-27T15:53:12;10.38;;;8.18;;
30068;SDS011;16894;49.456;10.644;2022-09-27T15:56:00;11.02;;;9.45;;
30068;SDS011;16894;49.456;10.644;2022-09-27T15:58:27;13.10;;;11.95;;
30068;SDS011;16894;49.456;10.644;2022-09-27T16:00:57;12.77;;;11.80;;
30068;SDS011;16894;49.456;10.644;2022-09-27T16:03:26;14.82;;;13.25;;
30068;SDS011;16894;49.456;10.644;2022-09-27T16:05:53;16.85;;;13.85;;
30068;SDS011;16894;49.456;10.644;2022-09-27T16:08:21;13.23;;;12.38;;
30068;SDS011;16894;49.456;10.644;2022-09-27T16:10:48;16.02;;;14.82;;
30068;SDS011;16894;49.456;10.644;2022-09-27T16:13:22;14.50;;;13.45;;
30068;SDS011;16894;49.456;10.644;2022-09-27T16:15:49;19.48;;;13.68;;
30068;SDS011;16894;49.456;10.644;2022-09-27T16:18:15;14.23;;;13.23;;
30068;SDS011;16894;49.456;10.644;2022-09-27T16:20:42;15.52;;;14.30;;
30068;SDS011;16894;49.456;10.644;2022-09-27T16:23:08;12.70;;;11.80;;
30068;SDS011;16894;49.456;10.644;2022-09-27T16:25:33;12.45;;;11.60;;
30068;SDS011;16894;49.456;10.644;2022-09-27T16:28:00;14.90;;;13.50;;
30068;SDS011;16894;49.456;10.644;2022-09-27T16:30:26;13.23;;;11.88;;
30068;SDS011;16894;49.456;10.644;2022-09-27T16:32:52;12.40;;;11.50;;
30068;SDS011;16894;49.456;10.644;2022-09-27T16:35:20;13.90;;;12.88;;
30068;SDS011;16894;49.456;10.644;2022-09-27T16:37:47;16.95;;;11.63;;
30068;SDS011;16894;49.456;10.644;2022-09-27T16:40:13;11.05;;;10.32;;
30068;SDS011;16894;49.456;10.644;2022-09-27T16:42:42;13.52;;;12.30;;
30068;SDS011;16894;49.456;10.644;2022-09-27T16:45:08;13.85;;;11.35;;
30068;SDS011;16894;49.456;10.644;2022-09-27T16:47:34;16.95;;;14.00;;
30068;SDS011;16894;49.456;10.644;2022-09-27T16:49:59;15.98;;;13.50;;
30068;SDS011;16894;49.456;10.644;2022-09-27T16:52:44;15.13;;;13.82;;
30068;SDS011;16894;49.456;10.644;2022-09-27T16:55:13;12.68;;;11.50;;
30068;SDS011;16894;49.456;10.644;2022-09-27T16:57:43;11.35;;;10.10;;
30068;SDS011;16894;49.456;10.644;2022-09-27T17:00:09;9.03;;;8.17;;
30068;SDS011;16894;49.456;10.644;2022-09-27T17:02:35;9.30;;;7.20;;
30068;SDS011;16894;49.456;10.644;2022-09-27T17:05:00;9.30;;;8.53;;
30068;SDS011;16894;49.456;10.644;2022-09-27T17:07:26;8.00;;;7.40;;
30068;SDS011;16894;49.456;10.644;2022-09-27T17:09:52;8.37;;;7.77;;
30068;SDS011;16894;49.456;10.644;2022-09-27T17:12:17;8.50;;;7.90;;
30068;SDS011;16894;49.456;10.644;2022-09-27T17:14:43;7.88;;;7.32;;
30068;SDS011;16894;49.456;10.644;2022-09-27T17:17:09;8.73;;;8.13;;
30068;SDS011;16894;49.456;10.644;2022-09-27T17:19:34;9.93;;;8.97;;
30068;SDS011;16894;49.456;10.644;2022-09-27T17:22:02;9.07;;;8.32;;
30068;SDS011;16894;49.456;10.644;2022-09-27T17:24:27;8.20;;;7.63;;
30068;SDS011;16894;49.456;10.644;2022-09-27T17:26:53;8.30;;;7.77;;
30068;SDS011;16894;49.456;10.644;2022-09-27T17:29:19;8.27;;;7.68;;
30068;SDS011;16894;49.456;10.644;2022-09-27T17:31:45;8.35;;;7.75;;
30068;SDS011;16894;49.456;10.644;2022-09-27T17:34:11;9.20;;;8.50;;
30068;SDS011;16894;49.456;10.644;2022-09-27T17:36:41;6.90;;;6.38;;
30068;SDS011;16894;49.456;10.644;2022-09-27T17:39:12;7.15;;;6.47;;
30068;SDS011;16894;49.456;10.644;2022-09-27T17:41:39;6.68;;;6.05;;
30068;SDS011;16894;49.456;10.644;2022-09-27T17:44:05;7.20;;;6.53;;
30068;SDS011;16894;49.456;10.644;2022-09-27T17:46:32;6.35;;;5.93;;
30068;SDS011;16894;49.456;10.644;2022-09-27T17:48:59;10.60;;;7.90;;
30068;SDS011;16894;49.456;10.644;2022-09-27T17:51:45;4.82;;;4.40;;
30068;SDS011;16894;49.456;10.644;2022-09-27T17:54:12;4.28;;;3.67;;